Time;durP1;ratioP1;P1;durP2;ratioP2;P2;SDS_P1;SDS_P2;PMS_P1;PMS_P2;Temp;Humidity;BMP_temperature;BMP_pressure;BME280_temperature;BME280_humidity;BME280_pressure;Samples;Min_cycle;Max_cycle;Signal;HPM_P1;HPM_P2
2023/09/01 00:02:06;;;;;;;3.08;1.65;;;12.30;99.90;;;;;;5064609;28;20047;-77
2023/09/01 00:04:32;;;;;;;4.57;2.00;;;12.30;99.90;;;;;;5070638;28;20451;-77
2023/09/01 00:06:59;;;;;;;5.03;1.90;;;12.30;99.90;;;;;;5069221;28;20028;-77
2023/09/01 00:09:24;;;;;;;3.88;2.00;;;12.30;99.90;;;;;;5063541;28;20044;-77
2023/09/01 00:11:50;;;;;;;4.43;2.20;;;12.40;99.90;;;;;;5064795;28;20039;-77
2023/09/01 00:14:15;;;;;;;6.18;2.30;;;12.30;99.90;;;;;;5075112;28;20453;-77
2023/09/01 00:16:41;;;;;;;6.03;2.10;;;12.30;99.90;;;;;;5066835;28;20065;-77
2023/09/01 00:19:06;;;;;;;2.50;1.90;;;12.30;99.90;;;;;;5064366;28;20131;-77
2023/09/01 00:21:32;;;;;;;5.47;2.40;;;12.30;99.90;;;;;;5066477;28;20071;-77
2023/09/01 00:23:57;;;;;;;4.10;1.92;;;12.20;99.90;;;;;;5067094;28;20126;-77
2023/09/01 00:26:23;;;;;;;4.45;2.30;;;12.20;99.90;;;;;;5066203;28;20569;-77
2023/09/01 00:28:48;;;;;;;4.75;2.00;;;12.20;99.90;;;;;;5070427;28;20052;-78
2023/09/01 00:31:16;;;;;;;4.65;1.90;;;12.20;99.90;;;;;;5068155;28;20051;-78
2023/09/01 00:33:41;;;;;;;4.07;1.90;;;12.10;99.90;;;;;;5072880;28;20055;-77
2023/09/01 00:36:07;;;;;;;3.95;2.13;;;12.10;99.90;;;;;;5070250;28;20028;-78
2023/09/01 00:38:32;;;;;;;4.82;2.15;;;12.00;99.90;;;;;;5063608;28;20059;-78
2023/09/01 00:40:58;;;;;;;3.20;2.08;;;12.00;99.90;;;;;;5063382;28;20041;-78
2023/09/01 00:43:25;;;;;;;3.80;2.05;;;12.00;99.90;;;;;;5069075;28;20181;-78
2023/09/01 00:45:51;;;;;;;6.72;2.15;;;12.00;99.90;;;;;;5061703;28;20040;-78
2023/09/01 00:48:17;;;;;;;7.38;2.45;;;11.90;99.90;;;;;;5072301;28;20055;-78
2023/09/01 00:50:46;;;;;;;3.28;2.05;;;11.90;99.90;;;;;;5089317;28;20118;-78
2023/09/01 00:53:11;;;;;;;3.17;2.15;;;11.90;99.90;;;;;;5065667;28;20044;-78
2023/09/01 00:55:37;;;;;;;4.32;1.90;;;11.90;99.90;;;;;;5082161;28;20044;-78
2023/09/01 00:58:04;;;;;;;6.40;2.40;;;11.80;99.90;;;;;;5061500;28;20466;-78
2023/09/01 01:00:32;;;;;;;3.35;2.00;;;11.80;99.90;;;;;;5069788;28;20040;-78
2023/09/01 01:03:00;;;;;;;4.18;1.90;;;11.80;99.90;;;;;;5056062;28;20036;-78
2023/09/01 01:05:33;;;;;;;3.45;1.98;;;11.80;99.90;;;;;;5068442;28;20048;-78
2023/09/01 01:08:27;;;;;;;5.38;2.00;;;11.70;99.90;;;;;;5078795;28;20438;-77
2023/09/01 01:11:06;;;;;;;3.38;2.13;;;11.60;99.90;;;;;;5076259;28;20044;-78
2023/09/01 01:13:35;;;;;;;5.88;2.35;;;11.50;99.90;;;;;;5069640;28;20039;-78
2023/09/01 01:16:02;;;;;;;5.50;2.85;;;11.50;99.90;;;;;;5066606;28;20131;-77
2023/09/01 01:18:31;;;;;;;3.63;2.47;;;11.50;99.90;;;;;;5084311;28;20106;-78
2023/09/01 01:21:06;;;;;;;5.07;2.30;;;11.50;99.90;;;;;;5050405;28;20487;-78
2023/09/01 01:23:33;;;;;;;3.58;2.25;;;11.50;99.90;;;;;;5068674;28;20054;-77
2023/09/01 01:25:58;;;;;;;3.85;2.17;;;11.50;99.90;;;;;;5061542;28;20032;-78
2023/09/01 01:28:24;;;;;;;4.45;2.00;;;11.50;99.90;;;;;;5068807;28;20123;-78
2023/09/01 01:30:50;;;;;;;4.47;2.35;;;11.50;99.90;;;;;;5063916;28;21503;-77
2023/09/01 01:33:28;;;;;;;4.05;2.30;;;11.50;99.90;;;;;;5064278;28;20122;-78
2023/09/01 01:36:16;;;;;;;3.95;2.13;;;11.50;99.90;;;;;;5058928;28;20050;-77
2023/09/01 01:38:45;;;;;;;4.75;2.20;;;11.50;99.90;;;;;;5061257;28;20044;-78
2023/09/01 01:41:24;;;;;;;4.40;2.20;;;11.50;99.90;;;;;;5063529;28;20590;-78
2023/09/01 01:43:51;;;;;;;4.82;2.28;;;11.50;99.90;;;;;;5064183;28;20072;-78
2023/09/01 01:46:17;;;;;;;3.53;1.80;;;11.50;99.90;;;;;;5061571;28;20055;-78
2023/09/01 01:48:42;;;;;;;4.90;2.40;;;11.40;99.90;;;;;;5068826;28;20032;-78
2023/09/01 01:51:08;;;;;;;4.22;1.98;;;11.40;99.90;;;;;;5062079;28;20453;-78
2023/09/01 01:53:35;;;;;;;4.00;2.45;;;11.30;99.90;;;;;;5074579;28;20511;-78
2023/09/01 01:56:03;;;;;;;4.07;1.92;;;11.40;99.90;;;;;;5068250;28;20499;-78
2023/09/01 01:58:29;;;;;;;5.45;2.45;;;11.30;99.90;;;;;;5059309;28;20048;-78
2023/09/01 02:00:55;;;;;;;4.45;2.55;;;11.30;99.90;;;;;;5090843;28;20403;-77
2023/09/01 02:03:20;;;;;;;4.97;2.50;;;11.30;99.90;;;;;;5070559;28;20131;-78
2023/09/01 02:05:46;;;;;;;4.05;2.50;;;11.40;99.90;;;;;;5070282;28;20086;-78
2023/09/01 02:08:11;;;;;;;5.47;2.65;;;11.40;99.90;;;;;;5071676;28;20044;-77
2023/09/01 02:10:37;;;;;;;2.90;2.40;;;11.40;99.90;;;;;;5072114;28;20426;-78
2023/09/01 02:13:04;;;;;;;6.00;2.42;;;11.40;99.90;;;;;;5055611;28;20040;-77
2023/09/01 02:15:30;;;;;;;3.85;2.35;;;11.40;99.90;;;;;;5071599;28;20044;-77
2023/09/01 02:17:57;;;;;;;6.93;2.47;;;11.40;99.90;;;;;;5071624;28;20067;-78
2023/09/01 02:20:23;;;;;;;6.63;2.53;;;11.30;99.90;;;;;;5072434;28;20039;-78
2023/09/01 02:22:50;;;;;;;4.80;2.70;;;11.30;99.90;;;;;;5070418;28;20044;-78
2023/09/01 02:25:16;;;;;;;4.03;2.95;;;11.30;99.90;;;;;;5071171;28;20691;-78
2023/09/01 02:27:43;;;;;;;4.07;2.35;;;11.30;99.90;;;;;;5070899;28;20036;-78
2023/09/01 02:30:10;;;;;;;4.30;2.20;;;11.20;99.90;;;;;;5066413;28;20036;-78
2023/09/01 02:32:37;;;;;;;3.72;2.38;;;11.20;99.90;;;;;;5066769;28;20048;-78
2023/09/01 02:35:06;;;;;;;4.40;2.58;;;11.20;99.90;;;;;;5062931;28;20062;-78
2023/09/01 02:37:32;;;;;;;6.32;2.67;;;11.20;99.90;;;;;;5068560;28;20068;-78
2023/09/01 02:39:58;;;;;;;3.65;2.72;;;11.10;99.90;;;;;;5068691;28;20040;-78
2023/09/01 02:42:23;;;;;;;3.80;2.17;;;11.10;99.90;;;;;;5067447;28;20131;-78
2023/09/01 02:44:49;;;;;;;4.32;2.40;;;11.10;99.90;;;;;;5062481;28;20040;-78
2023/09/01 02:47:15;;;;;;;3.72;2.20;;;11.10;99.90;;;;;;5061228;28;20037;-78
2023/09/01 02:49:40;;;;;;;3.78;2.10;;;11.00;99.90;;;;;;5072413;28;20067;-78
2023/09/01 02:52:06;;;;;;;4.03;2.40;;;11.00;99.90;;;;;;5066497;28;20039;-78
2023/09/01 02:54:32;;;;;;;5.03;2.33;;;11.00;99.90;;;;;;5069056;28;20430;-78
2023/09/01 02:56:58;;;;;;;5.43;2.40;;;11.00;99.90;;;;;;5074889;28;20474;-78
2023/09/01 02:59:24;;;;;;;3.63;2.40;;;11.00;99.90;;;;;;5073399;28;20047;-78
2023/09/01 03:01:50;;;;;;;3.70;2.10;;;10.90;99.90;;;;;;5065139;28;20052;-78
2023/09/01 03:04:15;;;;;;;7.18;2.47;;;10.90;99.90;;;;;;5070230;28;20069;-78
2023/09/01 03:06:41;;;;;;;4.00;2.03;;;10.90;99.90;;;;;;5067932;28;20076;-78
2023/09/01 03:09:09;;;;;;;4.03;2.20;;;10.90;99.90;;;;;;5058333;28;20067;-78
2023/09/01 03:11:35;;;;;;;4.55;2.30;;;10.90;99.90;;;;;;5065507;28;20044;-78
2023/09/01 03:14:00;;;;;;;4.35;1.75;;;10.80;99.90;;;;;;5070096;28;20039;-78
2023/09/01 03:16:30;;;;;;;2.17;1.30;;;10.80;99.90;;;;;;5066787;28;20044;-78
2023/09/01 03:18:59;;;;;;;2.70;1.45;;;10.80;99.90;;;;;;5066746;28;20035;-78
2023/09/01 03:21:29;;;;;;;2.83;1.50;;;10.70;99.90;;;;;;5074217;28;20115;-78
2023/09/01 03:23:54;;;;;;;3.13;1.58;;;10.70;99.90;;;;;;5066958;28;20032;-78
2023/09/01 03:26:22;;;;;;;3.03;1.50;;;10.70;99.90;;;;;;5067744;28;20075;-78
2023/09/01 03:28:48;;;;;;;2.63;1.40;;;10.70;99.90;;;;;;5063690;28;20059;-78
2023/09/01 03:31:13;;;;;;;3.13;1.60;;;10.60;99.90;;;;;;5065215;28;20036;-78
2023/09/01 03:33:40;;;;;;;2.50;1.77;;;10.60;99.90;;;;;;5056797;28;20093;-78
2023/09/01 03:36:07;;;;;;;3.90;1.63;;;10.60;99.90;;;;;;5063484;28;20047;-78
2023/09/01 03:38:34;;;;;;;2.97;1.20;;;10.50;99.90;;;;;;5068917;28;20036;-78
2023/09/01 03:41:04;;;;;;;1.40;0.90;;;10.50;99.90;;;;;;5063417;28;20068;-78
2023/09/01 03:43:30;;;;;;;1.73;1.13;;;10.50;99.90;;;;;;5069393;28;20441;-78
2023/09/01 03:45:57;;;;;;;3.65;1.38;;;10.50;99.90;;;;;;5071747;28;20495;-78
2023/09/01 03:48:23;;;;;;;2.25;1.40;;;10.40;99.90;;;;;;5068026;28;20071;-78
2023/09/01 03:51:07;;;;;;;1.58;1.20;;;10.40;99.90;;;;;;5071599;28;20080;-78
2023/09/01 03:53:33;;;;;;;;;;;10.40;99.90;;;;;;5070982;28;20055;-78
2023/09/01 03:56:01;;;;;;;2.28;1.50;;;10.40;99.90;;;;;;5062772;28;19916;-77
2023/09/01 03:58:27;;;;;;;2.30;1.40;;;10.40;99.90;;;;;;5068681;28;20040;-78
2023/09/01 04:00:52;;;;;;;2.75;1.40;;;10.40;99.90;;;;;;5077441;28;20040;-78
2023/09/01 04:03:18;;;;;;;2.10;1.50;;;10.40;99.90;;;;;;5063088;28;20028;-78
2023/09/01 04:05:44;;;;;;;4.47;2.00;;;10.30;99.90;;;;;;5066875;28;20043;-78
2023/09/01 04:08:09;;;;;;;3.30;1.70;;;10.30;99.90;;;;;;5058102;28;20093;-78
2023/09/01 04:10:38;;;;;;;5.18;1.95;;;10.30;99.90;;;;;;5061104;28;20093;-79
2023/09/01 04:13:03;;;;;;;2.80;1.90;;;10.30;99.90;;;;;;5066261;28;20040;-78
2023/09/01 04:15:29;;;;;;;5.38;2.10;;;10.30;99.90;;;;;;5064743;28;20052;-78
2023/09/01 04:17:54;;;;;;;4.50;2.30;;;10.30;99.90;;;;;;5064443;28;20044;-78
2023/09/01 04:20:20;;;;;;;3.25;1.65;;;10.30;99.90;;;;;;5049418;28;20384;-78
2023/09/01 04:22:46;;;;;;;1.98;1.20;;;10.30;99.90;;;;;;5064185;28;20043;-78
2023/09/01 04:25:11;;;;;;;3.50;1.33;;;10.20;99.90;;;;;;5064951;28;20194;-78
2023/09/01 04:27:37;;;;;;;3.47;1.70;;;10.20;99.90;;;;;;5063176;28;20076;-77
2023/09/01 04:30:03;;;;;;;2.83;1.60;;;10.20;99.90;;;;;;5069658;28;20488;-78
2023/09/01 04:32:28;;;;;;;3.50;2.40;;;10.10;99.90;;;;;;5069445;28;20076;-78
2023/09/01 04:34:54;;;;;;;4.13;2.00;;;10.10;99.90;;;;;;5069690;28;20079;-78
2023/09/01 04:37:21;;;;;;;5.60;2.20;;;10.10;99.90;;;;;;5065421;28;21032;-78
2023/09/01 04:39:46;;;;;;;4.82;2.35;;;10.10;99.90;;;;;;5064219;28;20028;-78
2023/09/01 04:42:12;;;;;;;3.63;2.03;;;10.10;99.90;;;;;;5079838;28;20036;-78
2023/09/01 04:44:37;;;;;;;4.15;2.08;;;10.10;99.90;;;;;;5074089;28;20036;-78
2023/09/01 04:47:03;;;;;;;3.92;1.98;;;10.00;99.90;;;;;;5068244;28;20396;-78
2023/09/01 04:49:28;;;;;;;4.90;2.25;;;10.00;99.90;;;;;;5063795;28;20047;-78
2023/09/01 04:51:54;;;;;;;4.88;2.47;;;10.00;99.90;;;;;;5065788;28;20035;-78
2023/09/01 04:54:19;;;;;;;4.18;2.25;;;10.00;99.90;;;;;;5060845;28;20036;-78
2023/09/01 04:56:45;;;;;;;4.63;2.30;;;10.10;99.90;;;;;;5062468;28;20047;-78
2023/09/01 04:59:11;;;;;;;3.75;2.50;;;10.00;99.90;;;;;;5066454;28;20044;-78
2023/09/01 05:01:36;;;;;;;3.97;2.20;;;10.10;99.90;;;;;;5065094;28;20156;-78
2023/09/01 05:04:02;;;;;;;3.95;2.25;;;10.10;99.90;;;;;;5080650;28;20036;-78
2023/09/01 05:06:28;;;;;;;3.70;2.30;;;10.10;99.90;;;;;;5075777;28;20036;-78
2023/09/01 05:08:53;;;;;;;4.10;2.50;;;10.10;99.90;;;;;;5073023;28;20084;-78
2023/09/01 05:11:19;;;;;;;4.05;2.20;;;10.20;99.90;;;;;;5091276;28;20031;-78
2023/09/01 05:13:44;;;;;;;3.78;2.20;;;10.20;99.90;;;;;;5089905;28;20051;-78
2023/09/01 05:16:11;;;;;;;6.03;2.67;;;10.20;99.90;;;;;;5078360;28;20396;-78
2023/09/01 05:18:36;;;;;;;3.90;2.38;;;10.20;99.90;;;;;;5074406;28;20052;-78
2023/09/01 05:21:02;;;;;;;4.15;2.50;;;10.30;99.90;;;;;;5072832;28;20526;-78
2023/09/01 05:23:31;;;;;;;5.38;2.85;;;10.30;99.90;;;;;;5072957;28;20521;-78
2023/09/01 05:25:57;;;;;;;5.40;2.92;;;10.40;99.90;;;;;;5069695;28;20036;-78
2023/09/01 05:28:23;;;;;;;4.63;2.50;;;10.40;99.90;;;;;;5063377;28;20038;-78
2023/09/01 05:30:48;;;;;;;4.20;2.30;;;10.50;99.90;;;;;;5064296;28;20089;-78
2023/09/01 05:33:14;;;;;;;4.45;2.35;;;10.60;99.90;;;;;;5071768;28;20058;-78
2023/09/01 05:35:39;;;;;;;4.97;2.25;;;10.60;99.90;;;;;;5071871;28;20052;-78
2023/09/01 05:38:04;;;;;;;4.13;2.55;;;10.60;99.90;;;;;;5072183;28;20521;-78
2023/09/01 05:40:30;;;;;;;5.18;2.75;;;10.70;99.90;;;;;;5070404;28;20046;-78
2023/09/01 05:42:55;;;;;;;6.97;3.35;;;10.70;99.90;;;;;;5081148;28;20032;-78
2023/09/01 05:45:21;;;;;;;6.22;2.60;;;10.80;99.90;;;;;;5073561;28;20411;-78
2023/09/01 05:47:47;;;;;;;6.32;2.75;;;11.00;99.90;;;;;;5071956;28;20391;-77
2023/09/01 05:50:12;;;;;;;4.88;2.30;;;11.10;99.90;;;;;;5073069;28;20052;-78
2023/09/01 05:52:37;;;;;;;4.28;2.20;;;11.30;99.90;;;;;;5066245;28;20402;-78
2023/09/01 05:55:03;;;;;;;5.18;2.78;;;11.40;99.90;;;;;;5058650;28;20041;-78
2023/09/01 05:57:29;;;;;;;3.20;2.42;;;11.50;99.90;;;;;;5059619;28;20040;-78
2023/09/01 05:59:54;;;;;;;4.47;2.15;;;11.60;99.90;;;;;;5055062;28;20029;-78
2023/09/01 06:02:20;;;;;;;5.90;2.50;;;11.70;99.90;;;;;;5066924;28;20046;-78
2023/09/01 06:04:45;;;;;;;3.35;2.38;;;11.70;99.90;;;;;;5060463;28;20039;-78
2023/09/01 06:07:11;;;;;;;4.55;2.35;;;11.80;99.90;;;;;;5064829;28;20036;-78
2023/09/01 06:09:37;;;;;;;4.00;2.05;;;11.80;99.90;;;;;;5069235;28;20052;-78
2023/09/01 06:12:03;;;;;;;3.58;2.28;;;11.90;99.90;;;;;;5091124;28;20063;-77
2023/09/01 06:14:28;;;;;;;4.25;2.85;;;12.00;99.90;;;;;;5071864;28;20522;-77
2023/09/01 06:16:54;;;;;;;5.28;2.70;;;12.10;99.90;;;;;;5071552;28;20047;-77
2023/09/01 06:19:19;;;;;;;4.68;3.10;;;12.10;99.90;;;;;;5073760;28;20048;-77
2023/09/01 06:21:45;;;;;;;5.43;2.97;;;12.10;99.90;;;;;;5070992;28;20043;-77
2023/09/01 06:24:10;;;;;;;6.88;3.22;;;12.10;99.90;;;;;;5058419;28;20036;-77
2023/09/01 06:26:36;;;;;;;5.15;3.38;;;12.20;99.90;;;;;;5076035;28;20175;-77
2023/09/01 06:29:02;;;;;;;5.90;3.30;;;12.20;99.90;;;;;;5057103;28;20123;-77
2023/09/01 06:31:28;;;;;;;5.18;3.20;;;12.30;99.90;;;;;;5065853;28;20047;-77
2023/09/01 06:33:53;;;;;;;6.28;3.33;;;12.30;99.90;;;;;;5060607;28;20637;-77
2023/09/01 06:36:19;;;;;;;3.53;2.65;;;12.50;99.90;;;;;;5076773;28;20040;-77
2023/09/01 06:38:45;;;;;;;3.95;2.70;;;12.60;99.90;;;;;;5058485;28;20041;-77
2023/09/01 06:41:10;;;;;;;6.28;3.05;;;12.70;99.90;;;;;;5059702;28;20036;-77
2023/09/01 06:43:36;;;;;;;4.57;2.58;;;12.90;99.90;;;;;;5076027;28;20047;-77
2023/09/01 06:46:02;;;;;;;6.47;2.88;;;13.00;99.90;;;;;;5075579;28;20028;-77
2023/09/01 06:48:29;;;;;;;8.15;3.10;;;13.10;99.90;;;;;;5073787;28;20044;-77
2023/09/01 06:50:55;;;;;;;4.35;2.80;;;13.10;99.90;;;;;;5065842;28;20044;-77
2023/09/01 06:53:20;;;;;;;3.97;2.60;;;13.30;99.90;;;;;;5069058;28;20047;-78
2023/09/01 06:55:46;;;;;;;4.00;2.80;;;13.40;99.90;;;;;;5084675;28;20749;-77
2023/09/01 06:58:13;;;;;;;5.18;2.40;;;13.50;99.90;;;;;;5072931;28;20077;-78
2023/09/01 07:00:38;;;;;;;5.55;2.30;;;13.60;99.90;;;;;;5077003;28;20085;-78
2023/09/01 07:03:04;;;;;;;4.55;2.78;;;13.60;99.90;;;;;;5078949;28;20555;-77
2023/09/01 07:05:29;;;;;;;6.75;2.80;;;13.60;99.90;;;;;;5082684;28;20127;-78
2023/09/01 07:07:55;;;;;;;3.70;2.28;;;13.60;99.90;;;;;;5075520;28;20070;-77
2023/09/01 07:10:20;;;;;;;5.03;2.70;;;13.60;99.90;;;;;;5074519;28;20044;-77
2023/09/01 07:12:46;;;;;;;4.80;2.80;;;13.70;99.90;;;;;;5059170;28;20043;-77
2023/09/01 07:15:12;;;;;;;4.80;2.90;;;13.80;99.90;;;;;;5075775;28;20077;-78
2023/09/01 07:17:37;;;;;;;7.82;2.85;;;14.00;99.90;;;;;;5074945;28;20564;-77
2023/09/01 07:20:04;;;;;;;5.65;2.63;;;14.20;99.90;;;;;;5075788;28;20078;-80
2023/09/01 07:22:29;;;;;;;7.30;2.95;;;14.30;99.90;;;;;;5075814;28;20032;-78
2023/09/01 07:24:55;;;;;;;4.45;2.60;;;14.40;99.90;;;;;;5075213;28;20028;-78
2023/09/01 07:27:20;;;;;;;5.97;2.53;;;14.50;99.90;;;;;;5057143;28;20040;-77
2023/09/01 07:29:48;;;;;;;5.45;2.70;;;14.60;99.90;;;;;;5075585;28;20051;-77
2023/09/01 07:32:14;;;;;;;7.28;2.97;;;14.80;99.90;;;;;;5077340;28;20100;-77
2023/09/01 07:34:40;;;;;;;5.65;2.60;;;14.80;99.90;;;;;;5073962;28;20407;-77
2023/09/01 07:37:06;;;;;;;3.70;2.20;;;15.00;99.90;;;;;;5075389;28;20035;-77
2023/09/01 07:39:32;;;;;;;5.22;2.53;;;15.00;99.90;;;;;;5073193;28;20044;-77
2023/09/01 07:41:58;;;;;;;6.13;2.10;;;15.10;99.90;;;;;;5074366;28;20038;-78
2023/09/01 07:44:23;;;;;;;8.55;2.17;;;15.10;99.90;;;;;;5075679;28;20036;-78
2023/09/01 07:46:49;;;;;;;5.85;2.10;;;15.20;99.90;;;;;;5058058;28;20128;-78
2023/09/01 07:49:14;;;;;;;4.28;2.05;;;15.10;99.90;;;;;;5077399;28;20510;-78
2023/09/01 07:51:40;;;;;;;3.88;1.85;;;15.20;99.90;;;;;;5074728;28;20510;-78
2023/09/01 07:54:06;;;;;;;4.45;2.13;;;15.30;99.90;;;;;;5074873;28;20035;-78
2023/09/01 07:56:34;;;;;;;4.05;2.00;;;15.40;99.90;;;;;;5068025;28;20052;-78
2023/09/01 07:59:01;;;;;;;3.67;2.00;;;15.40;99.90;;;;;;5073153;28;20036;-78
2023/09/01 08:01:26;;;;;;;4.35;2.17;;;15.50;99.90;;;;;;5076796;28;20705;-78
2023/09/01 08:03:52;;;;;;;3.72;2.15;;;15.60;99.90;;;;;;5074264;28;20048;-78
2023/09/01 08:06:17;;;;;;;3.25;2.20;;;15.50;99.90;;;;;;5076842;28;20559;-78
2023/09/01 08:08:43;;;;;;;5.68;2.50;;;15.70;99.90;;;;;;5074540;28;20040;-78
2023/09/01 08:11:08;;;;;;;6.30;2.22;;;15.80;99.90;;;;;;5073916;28;20574;-78
2023/09/01 08:13:34;;;;;;;5.20;2.40;;;16.00;99.90;;;;;;5070712;28;20093;-75
2023/09/01 08:15:59;;;;;;;4.13;2.33;;;16.10;99.90;;;;;;5068622;28;20028;-78
2023/09/01 08:18:25;;;;;;;4.53;2.00;;;16.20;99.90;;;;;;5068644;28;20040;-76
2023/09/01 08:20:50;;;;;;;4.88;1.80;;;16.30;99.90;;;;;;5077049;28;20708;-76
2023/09/01 08:23:21;;;;;;;4.32;1.60;;;16.30;99.90;;;;;;5066375;28;20536;-76
2023/09/01 08:25:47;;;;;;;3.97;1.73;;;16.40;99.90;;;;;;5056367;28;20044;-75
2023/09/01 08:28:12;;;;;;;6.72;2.05;;;16.40;99.90;;;;;;5086893;28;20499;-76
2023/09/01 08:30:38;;;;;;;3.80;1.95;;;16.50;99.90;;;;;;5074408;28;20040;-75
2023/09/01 08:33:04;;;;;;;8.00;2.00;;;16.60;99.90;;;;;;5071819;28;20024;-75
2023/09/01 08:35:30;;;;;;;5.85;1.58;;;16.70;99.90;;;;;;5069762;28;20442;-75
2023/09/01 08:37:55;;;;;;;4.63;1.85;;;16.80;99.90;;;;;;5065235;28;20040;-75
2023/09/01 08:40:21;;;;;;;4.25;1.98;;;16.80;99.90;;;;;;5073922;28;20039;-76
2023/09/01 08:42:48;;;;;;;6.95;1.83;;;16.90;99.90;;;;;;5073874;28;20522;-76
2023/09/01 08:45:15;;;;;;;3.60;1.48;;;16.90;99.90;;;;;;5070122;28;20372;-75
2023/09/01 08:47:46;;;;;;;3.35;1.63;;;16.90;99.90;;;;;;5074000;28;20036;-76
2023/09/01 08:50:13;;;;;;;3.60;1.45;;;16.90;99.90;;;;;;5073351;28;20479;-76
2023/09/01 08:52:41;;;;;;;5.03;1.60;;;16.90;99.90;;;;;;5073712;28;20044;-76
2023/09/01 08:55:07;;;;;;;2.95;1.90;;;16.90;99.90;;;;;;5083869;28;20085;-76
2023/09/01 08:57:33;;;;;;;4.40;1.80;;;16.90;99.90;;;;;;5074633;28;20048;-76
2023/09/01 08:59:58;;;;;;;4.75;1.50;;;17.00;99.90;;;;;;5069221;28;20038;-76
2023/09/01 09:02:24;;;;;;;4.05;1.58;;;17.10;99.90;;;;;;5070210;28;20027;-76
2023/09/01 09:04:49;;;;;;;4.95;1.50;;;17.10;99.90;;;;;;5056533;28;20044;-76
2023/09/01 09:07:17;;;;;;;2.67;1.38;;;17.10;99.90;;;;;;5073222;28;20039;-76
2023/09/01 09:09:53;;;;;;;3.53;1.05;;;17.10;99.90;;;;;;5073472;28;20079;-76
2023/09/01 09:12:20;;;;;;;4.50;1.40;;;17.10;99.90;;;;;;5069034;28;20068;-76
2023/09/01 09:14:50;;;;;;;3.05;1.13;;;17.20;99.90;;;;;;5068706;28;20307;-76
2023/09/01 09:17:15;;;;;;;3.42;1.00;;;17.20;99.90;;;;;;5071822;28;20564;-76
2023/09/01 09:19:54;;;;;;;3.75;1.35;;;17.30;99.90;;;;;;5072284;28;20143;-76
2023/09/01 09:22:20;;;;;;;4.25;1.25;;;17.40;99.90;;;;;;5077277;28;20051;-75
2023/09/01 09:24:47;;;;;;;5.45;1.25;;;17.40;99.90;;;;;;5070383;28;20083;-76
2023/09/01 09:27:17;;;;;;;3.95;1.27;;;17.40;99.90;;;;;;5073627;28;20039;-76
2023/09/01 09:29:45;;;;;;;4.25;1.40;;;17.40;99.90;;;;;;5071417;28;20442;-76
2023/09/01 09:32:26;;;;;;;3.05;1.02;;;17.50;99.90;;;;;;5069480;28;20043;-76
2023/09/01 09:35:09;;;;;;;2.63;1.10;;;17.50;99.90;;;;;;5063999;28;20043;-75
2023/09/01 09:37:36;;;;;;;1.50;1.07;;;17.50;99.90;;;;;;5068424;28;20040;-75
2023/09/01 09:40:14;;;;;;;2.80;1.00;;;17.60;99.90;;;;;;5069385;28;20132;-76
2023/09/01 09:42:41;;;;;;;3.40;1.00;;;17.60;99.90;;;;;;5069722;28;20051;-76
2023/09/01 09:45:28;;;;;;;4.95;1.23;;;17.70;99.90;;;;;;5054772;28;20039;-76
2023/09/01 09:47:59;;;;;;;3.58;1.20;;;17.70;99.90;;;;;;5071168;28;20058;-76
2023/09/01 09:50:25;;;;;;;2.92;1.15;;;17.70;99.90;;;;;;5071948;28;20043;-76
2023/09/01 09:52:59;;;;;;;2.58;1.00;;;17.70;99.90;;;;;;5074195;28;20058;-75
2023/09/01 09:55:29;;;;;;;2.13;0.90;;;17.70;99.90;;;;;;5073281;28;20082;-76
2023/09/01 09:58:04;;;;;;;3.00;0.88;;;17.70;99.90;;;;;;5071501;28;20068;-75
2023/09/01 10:00:31;;;;;;;2.33;1.20;;;17.70;99.90;;;;;;5073122;28;20047;-75
2023/09/01 10:03:01;;;;;;;2.63;1.10;;;17.70;99.90;;;;;;5073813;28;20404;-76
2023/09/01 10:05:31;;;;;;;3.13;0.90;;;17.70;99.90;;;;;;5070909;28;20035;-76
2023/09/01 10:08:00;;;;;;;2.75;1.00;;;17.70;99.90;;;;;;5083024;28;20475;-75
2023/09/01 10:10:26;;;;;;;2.38;1.00;;;17.70;99.90;;;;;;5072902;28;20039;-76
2023/09/01 10:12:52;;;;;;;3.63;1.00;;;17.70;99.90;;;;;;5072802;28;20035;-76
2023/09/01 10:15:18;;;;;;;3.75;0.98;;;17.70;99.90;;;;;;5072896;28;20422;-76
2023/09/01 10:17:46;;;;;;;5.30;0.95;;;17.80;99.90;;;;;;5072251;28;20036;-75
2023/09/01 10:20:12;;;;;;;2.90;0.98;;;17.80;99.90;;;;;;5071284;28;20036;-75
2023/09/01 10:22:41;;;;;;;2.15;0.90;;;17.90;99.90;;;;;;5072366;28;20100;-76
2023/09/01 10:25:10;;;;;;;2.85;0.85;;;18.00;99.90;;;;;;5083264;28;20089;-75
2023/09/01 10:27:37;;;;;;;2.47;1.20;;;18.10;99.90;;;;;;5070961;28;20112;-75
2023/09/01 10:30:26;;;;;;;4.43;1.20;;;18.30;99.90;;;;;;5072894;28;20059;-75
2023/09/01 10:33:04;;;;;;;2.35;0.80;;;18.50;99.90;;;;;;5070982;28;20028;-75
2023/09/01 10:35:37;;;;;;;3.08;1.00;;;18.80;99.90;;;;;;5060930;28;20043;-75
2023/09/01 10:38:31;;;;;;;4.75;1.30;;;19.00;99.90;;;;;;5055609;28;20457;-76
2023/09/01 10:40:58;;;;;;;4.55;1.25;;;19.10;99.90;;;;;;5064332;28;20032;-76
2023/09/01 10:43:53;;;;;;;4.60;1.10;;;19.10;99.90;;;;;;5063361;28;20040;-75
2023/09/01 10:46:21;;;;;;;3.05;0.93;;;19.20;99.90;;;;;;5066980;28;20220;-77
2023/09/01 10:48:54;;;;;;;4.05;0.93;;;19.30;99.90;;;;;;5062348;28;20045;-76
2023/09/01 10:51:24;;;;;;;3.38;1.13;;;19.50;99.90;;;;;;5072083;28;20123;-77
2023/09/01 10:53:56;;;;;;;4.38;1.08;;;19.60;99.90;;;;;;5072501;28;20040;-76
2023/09/01 10:56:23;;;;;;;4.45;1.10;;;19.70;99.90;;;;;;5072269;28;20496;-76
2023/09/01 10:58:54;;;;;;;3.40;1.10;;;19.80;99.90;;;;;;5071607;28;20048;-76
2023/09/01 11:01:36;;;;;;;2.85;1.30;;;19.90;99.90;;;;;;5071221;28;20415;-77
2023/09/01 11:04:14;;;;;;;3.92;1.25;;;19.90;99.90;;;;;;5071420;28;20036;-77
2023/09/01 11:06:58;;;;;;;4.35;1.33;;;19.90;99.90;;;;;;5071199;28;20123;-77
2023/09/01 11:09:43;;;;;;;4.50;1.40;;;20.20;99.90;;;;;;5088529;28;20047;-77
2023/09/01 11:12:12;;;;;;;6.68;1.50;;;20.30;99.90;;;;;;5075912;28;20046;-77
2023/09/01 11:14:51;;;;;;;3.38;1.27;;;20.50;99.90;;;;;;5075653;28;20411;-77
2023/09/01 11:17:17;;;;;;;3.33;1.48;;;20.80;99.90;;;;;;5075785;28;20044;-77
2023/09/01 11:19:49;;;;;;;2.65;1.27;;;21.00;99.90;;;;;;5059099;28;20040;-76
2023/09/01 11:22:14;;;;;;;4.28;1.40;;;21.20;99.90;;;;;;5075741;28;20043;-76
2023/09/01 11:24:45;;;;;;;4.45;1.20;;;21.30;99.90;;;;;;5072654;28;20032;-77
2023/09/01 11:27:10;;;;;;;6.75;1.77;;;21.30;99.90;;;;;;5075271;28;20101;-77
2023/09/01 11:29:37;;;;;;;5.75;1.85;;;21.10;99.90;;;;;;5075578;28;20502;-77
2023/09/01 11:32:03;;;;;;;5.13;1.77;;;21.10;99.90;;;;;;5068399;28;20127;-77
2023/09/01 11:34:38;;;;;;;5.15;2.13;;;21.10;99.90;;;;;;5073608;28;20123;-76
2023/09/01 11:37:04;;;;;;;7.38;2.88;;;21.10;99.90;;;;;;5071341;28;20040;-77
2023/09/01 11:39:29;;;;;;;6.65;2.55;;;21.20;99.90;;;;;;5072189;28;20036;-76
2023/09/01 11:41:55;;;;;;;4.82;1.83;;;21.20;99.90;;;;;;5071588;28;20101;-76
2023/09/01 11:44:21;;;;;;;5.60;2.40;;;21.10;99.90;;;;;;5072708;28;20032;-76
2023/09/01 11:46:47;;;;;;;6.90;2.88;;;21.10;99.90;;;;;;5072241;28;20372;-76
2023/09/01 11:49:16;;;;;;;6.80;2.92;;;21.10;99.90;;;;;;5073564;28;20042;-77
2023/09/01 11:51:41;;;;;;;6.85;2.75;;;21.10;99.90;;;;;;5073699;28;20459;-76
2023/09/01 11:54:08;;;;;;;6.55;2.72;;;21.30;99.90;;;;;;5074020;28;20115;-77
2023/09/01 11:56:34;;;;;;;9.55;2.88;;;21.30;99.90;;;;;;5075996;28;20066;-77
2023/09/01 11:59:00;;;;;;;9.95;3.08;;;21.30;99.90;;;;;;5074767;28;20037;-77
2023/09/01 12:01:44;;;;;;;6.60;2.15;;;21.60;99.90;;;;;;5073891;28;20051;-76
2023/09/01 12:04:09;;;;;;;6.80;2.72;;;22.00;99.90;;;;;;5075194;28;20040;-75
2023/09/01 12:06:44;;;;;;;7.35;2.80;;;21.90;99.90;;;;;;5074424;28;20035;-77
2023/09/01 12:09:12;;;;;;;7.30;2.65;;;21.80;99.90;;;;;;5074213;28;20054;-76
2023/09/01 12:11:54;;;;;;;9.20;2.88;;;21.70;99.90;;;;;;5055659;28;20040;-77
2023/09/01 12:14:30;;;;;;;5.88;2.40;;;21.90;99.90;;;;;;5076307;28;20035;-77
2023/09/01 12:16:57;;;;;;;5.25;2.42;;;22.20;99.90;;;;;;5073419;28;20091;-78
2023/09/01 12:19:24;;;;;;;5.18;2.35;;;22.40;99.90;;;;;;5073170;28;20051;-77
2023/09/01 12:21:50;;;;;;;5.18;2.58;;;22.60;99.90;;;;;;5073225;28;20032;-77
2023/09/01 12:24:16;;;;;;;7.15;2.83;;;22.40;99.90;;;;;;5076176;28;20039;-77
2023/09/01 12:26:41;;;;;;;6.85;2.60;;;22.30;99.90;;;;;;5054918;28;20412;-77
2023/09/01 12:29:07;;;;;;;7.57;2.92;;;22.10;99.90;;;;;;5076395;28;20040;-77
2023/09/01 12:31:32;;;;;;;9.15;2.25;;;21.70;99.90;;;;;;5073022;28;20044;-77
2023/09/01 12:33:58;;;;;;;5.78;2.38;;;21.50;99.90;;;;;;5071497;28;20028;-77
2023/09/01 12:36:23;;;;;;;5.28;2.47;;;21.30;99.90;;;;;;5074405;28;20040;-78
2023/09/01 12:38:49;;;;;;;7.43;2.78;;;21.20;99.90;;;;;;5077983;28;20067;-77
2023/09/01 12:41:14;;;;;;;8.05;2.80;;;21.70;99.90;;;;;;5072778;28;20518;-76
2023/09/01 12:43:42;;;;;;;6.07;2.67;;;22.20;99.90;;;;;;5073536;28;20051;-76
2023/09/01 12:46:08;;;;;;;7.00;2.50;;;22.50;99.90;;;;;;5076800;28;20024;-76
2023/09/01 12:48:33;;;;;;;7.57;2.85;;;22.60;99.90;;;;;;5072307;28;20085;-76
2023/09/01 12:50:59;;;;;;;6.38;2.60;;;22.80;99.90;;;;;;5074818;28;20036;-76